Time;durP1;ratioP1;P1;durP2;ratioP2;P2;SDS_P1;SDS_P2;PMS_P1;PMS_P2;Temp;Humidity;BMP_temperature;BMP_pressure;BME280_temperature;BME280_humidity;BME280_pressure;Samples;Min_cycle;Max_cycle;Signal;HPM_P1;HPM_P2
2022/04/29 00:01:18;;;;;;;11.40;6.80;;;;;;;;;;6255794;22;20174;-87
2022/04/29 00:04:23;;;;;;;12.77;5.97;;;;;;;;;;6257761;23;20237;-89
2022/04/29 00:07:28;;;;;;;12.93;6.37;;;;;;;;;;6256582;23;20206;-87
2022/04/29 00:10:34;;;;;;;11.33;6.17;;;;;;;;;;6238437;23;20232;-87
2022/04/29 00:13:42;;;;;;;9.60;6.07;;;;;;;;;;6239109;23;20175;-88
2022/04/29 00:16:48;;;;;;;12.80;6.13;;;;;;;;;;6238095;23;20629;-88
2022/04/29 00:19:54;;;;;;;12.20;6.50;;;;;;;;;;6239378;22;20490;-88
2022/04/29 00:22:59;;;;;;;10.30;6.20;;;;;;;;;;6240481;23;20162;-88
2022/04/29 00:26:04;;;;;;;11.87;5.90;;;;;;;;;;6239577;23;20154;-89
2022/04/29 00:29:11;;;;;;;15.53;6.70;;;;;;;;;;6240197;23;20186;-88
2022/04/29 00:32:18;;;;;;;12.10;6.60;;;;;;;;;;6237909;23;20174;-87
2022/04/29 00:35:24;;;;;;;17.27;7.27;;;;;;;;;;6237659;23;20234;-88
2022/04/29 00:38:29;;;;;;;11.27;6.37;;;;;;;;;;6241340;23;20174;-87
2022/04/29 00:41:34;;;;;;;9.90;6.03;;;;;;;;;;6239722;23;20174;-88
2022/04/29 00:44:43;;;;;;;10.47;5.90;;;;;;;;;;6237658;23;20170;-88
2022/04/29 00:47:49;;;;;;;10.63;6.10;;;;;;;;;;6239068;23;20193;-87
2022/04/29 00:50:54;;;;;;;17.43;6.77;;;;;;;;;;6256332;23;20181;-87
2022/04/29 00:53:59;;;;;;;10.77;6.27;;;;;;;;;;6240037;22;20162;-88
2022/04/29 00:57:08;;;;;;;14.83;6.33;;;;;;;;;;6239166;22;20229;-88
2022/04/29 01:00:15;;;;;;;9.93;5.80;;;;;;;;;;6239436;23;20167;-89
2022/04/29 01:03:21;;;;;;;14.27;6.50;;;;;;;;;;6237054;23;20166;-87
2022/04/29 01:06:26;;;;;;;12.00;7.07;;;;;;;;;;6234925;23;20171;-87
2022/04/29 01:09:31;;;;;;;14.37;6.60;;;;;;;;;;6206866;23;20215;-89
2022/04/29 01:12:37;;;;;;;13.33;6.63;;;;;;;;;;6209354;23;20622;-88
2022/04/29 01:15:44;;;;;;;9.70;6.20;;;;;;;;;;6209368;23;20163;-87
2022/04/29 01:18:49;;;;;;;12.30;6.47;;;;;;;;;;6208784;23;20175;-87
2022/04/29 01:21:54;;;;;;;10.93;6.63;;;;;;;;;;6208804;23;20163;-88
2022/04/29 01:25:02;;;;;;;11.77;6.80;;;;;;;;;;6209195;23;20255;-87
2022/04/29 01:28:08;;;;;;;11.57;6.57;;;;;;;;;;6192296;23;20214;-88
2022/04/29 01:31:17;;;;;;;11.53;6.90;;;;;;;;;;6209849;23;20167;-90
2022/04/29 01:34:23;;;;;;;11.50;6.43;;;;;;;;;;6208883;23;20504;-87
2022/04/29 01:37:28;;;;;;;13.57;6.70;;;;;;;;;;6211784;23;20162;-87
2022/04/29 01:40:35;;;;;;;10.47;6.07;;;;;;;;;;6210120;23;20175;-85
2022/04/29 01:43:46;;;;;;;9.87;6.13;;;;;;;;;;6208797;23;20202;-88
2022/04/29 01:46:55;;;;;;;13.30;6.90;;;;;;;;;;6208275;23;20191;-88
2022/04/29 01:50:14;;;;;;;17.50;6.77;;;;;;;;;;6210406;23;20250;-87
2022/04/29 01:53:19;;;;;;;13.17;7.07;;;;;;;;;;6207908;23;20665;-88
2022/04/29 01:56:33;;;;;;;12.63;7.10;;;;;;;;;;6208165;23;20167;-87
2022/04/29 01:59:40;;;;;;;10.90;7.03;;;;;;;;;;6207526;23;20159;-87
2022/04/29 02:02:52;;;;;;;11.03;7.37;;;;;;;;;;6207785;23;20168;-87
2022/04/29 02:05:57;;;;;;;13.40;7.30;;;;;;;;;;6227917;23;20171;-88
2022/04/29 02:09:02;;;;;;;14.70;7.53;;;;;;;;;;6247900;23;20192;-88
2022/04/29 02:12:11;;;;;;;10.30;6.93;;;;;;;;;;6255836;22;20166;-86
2022/04/29 02:15:49;;;;;;;12.57;7.20;;;;;;;;;;6231717;23;20688;-87
2022/04/29 02:18:55;;;;;;;10.50;7.00;;;;;;;;;;6257987;23;20239;-86
2022/04/29 02:22:01;;;;;;;13.37;7.60;;;;;;;;;;6257384;22;20235;-86
2022/04/29 02:25:07;;;;;;;13.47;7.50;;;;;;;;;;6255105;23;20177;-87
2022/04/29 02:28:13;;;;;;;12.83;7.40;;;;;;;;;;6254312;23;20186;-87
2022/04/29 02:31:19;;;;;;;13.70;7.90;;;;;;;;;;6255952;22;20171;-88
2022/04/29 02:34:24;;;;;;;15.17;8.07;;;;;;;;;;6255803;23;20217;-87
2022/04/29 02:37:31;;;;;;;13.53;8.03;;;;;;;;;;6257043;22;20159;-87
2022/04/29 02:40:36;;;;;;;13.97;7.77;;;;;;;;;;6256673;23;20293;-86
2022/04/29 02:43:43;;;;;;;13.83;7.27;;;;;;;;;;6255554;22;20795;-86
2022/04/29 02:50:11;;;;;;;19.27;7.60;;;;;;;;;;6254164;22;20625;-88
2022/04/29 02:53:20;;;;;;;14.27;7.37;;;;;;;;;;6255062;23;20530;-88
2022/04/29 02:56:25;;;;;;;13.40;6.93;;;;;;;;;;6255706;22;20163;-87
2022/04/29 02:59:48;;;;;;;15.40;7.83;;;;;;;;;;6255845;22;20245;-87
2022/04/29 03:02:53;;;;;;;13.20;7.13;;;;;;;;;;6255592;23;20170;-88
2022/04/29 03:05:59;;;;;;;20.03;7.20;;;;;;;;;;6256583;23;20166;-87
2022/04/29 03:09:06;;;;;;;14.47;7.90;;;;;;;;;;6257899;23;20210;-87
2022/04/29 03:12:13;;;;;;;15.03;7.60;;;;;;;;;;6239491;23;20168;-86
2022/04/29 03:15:20;;;;;;;11.37;7.13;;;;;;;;;;6238671;23;20166;-87
2022/04/29 03:18:29;;;;;;;12.43;7.50;;;;;;;;;;6238183;23;20154;-86
2022/04/29 03:21:35;;;;;;;14.37;7.40;;;;;;;;;;6239402;22;20170;-86
2022/04/29 03:24:40;;;;;;;10.73;6.83;;;;;;;;;;6239485;22;20239;-88
2022/04/29 03:27:44;;;;;;;13.67;7.07;;;;;;;;;;6239413;23;20314;-88
2022/04/29 03:30:51;;;;;;;10.33;7.00;;;;;;;;;;6239523;23;20170;-88
2022/04/29 03:34:04;;;;;;;13.77;7.57;;;;;;;;;;6237623;23;20170;-88
2022/04/29 03:37:09;;;;;;;12.43;7.67;;;;;;;;;;6237705;22;20155;-86
2022/04/29 03:40:16;;;;;;;13.80;8.17;;;;;;;;;;6238083;22;20166;-88
2022/04/29 03:43:21;;;;;;;13.33;7.20;;;;;;;;;;6238646;23;20171;-87
2022/04/29 03:46:27;;;;;;;15.73;7.93;;;;;;;;;;6238653;23;20237;-88
2022/04/29 03:49:59;;;;;;;12.90;7.70;;;;;;;;;;6245343;23;20194;-88
2022/04/29 03:53:04;;;;;;;11.90;7.33;;;;;;;;;;6239598;23;20243;-87
2022/04/29 03:56:12;;;;;;;13.00;8.17;;;;;;;;;;6239532;23;20221;-88
2022/04/29 03:59:18;;;;;;;14.67;7.87;;;;;;;;;;6239225;23;20285;-88
2022/04/29 04:02:28;;;;;;;17.33;8.47;;;;;;;;;;6237562;23;20170;-86
2022/04/29 04:05:33;;;;;;;12.07;7.97;;;;;;;;;;6236784;23;20496;-87
2022/04/29 04:08:38;;;;;;;13.00;7.53;;;;;;;;;;6246210;23;20349;-87
2022/04/29 04:11:44;;;;;;;14.17;8.17;;;;;;;;;;6256854;23;20314;-88
2022/04/29 04:14:53;;;;;;;14.70;8.40;;;;;;;;;;6255538;23;20174;-88
2022/04/29 04:18:01;;;;;;;13.17;7.43;;;;;;;;;;6255774;22;20216;-88
2022/04/29 04:21:06;;;;;;;12.17;7.47;;;;;;;;;;6255385;23;20248;-89
2022/04/29 04:24:12;;;;;;;12.53;7.13;;;;;;;;;;6255460;23;20625;-87
2022/04/29 04:27:17;;;;;;;12.97;7.20;;;;;;;;;;6255898;22;20174;-87
2022/04/29 04:30:23;;;;;;;17.30;8.10;;;;;;;;;;6256866;23;20162;-87
2022/04/29 04:33:30;;;;;;;16.13;7.80;;;;;;;;;;6256001;23;20170;-88
2022/04/29 04:36:36;;;;;;;14.23;7.60;;;;;;;;;;6255351;22;20163;-89
2022/04/29 04:39:41;;;;;;;14.03;8.10;;;;;;;;;;6256801;22;20146;-87
2022/04/29 04:42:51;;;;;;;14.17;8.07;;;;;;;;;;6256967;22;20179;-86
2022/04/29 04:46:10;;;;;;;14.07;7.80;;;;;;;;;;6257143;23;20170;-86
2022/04/29 04:49:20;;;;;;;16.60;7.90;;;;;;;;;;6258336;23;20645;-87
2022/04/29 04:52:48;;;;;;;14.67;8.00;;;;;;;;;;6257706;23;20166;-86
2022/04/29 04:55:54;;;;;;;12.60;7.50;;;;;;;;;;6255725;23;20294;-86
2022/04/29 04:58:59;;;;;;;13.23;7.30;;;;;;;;;;6256301;22;20170;-89
2022/04/29 05:02:06;;;;;;;13.23;7.43;;;;;;;;;;6257477;23;20248;-87
2022/04/29 05:05:32;;;;;;;11.63;7.33;;;;;;;;;;6235839;22;20194;-87
2022/04/29 05:08:49;;;;;;;15.67;7.50;;;;;;;;;;6257014;23;20670;-87
2022/04/29 05:11:54;;;;;;;13.80;7.33;;;;;;;;;;6255195;22;20193;-87
2022/04/29 05:15:19;;;;;;;14.80;7.17;;;;;;;;;;6256631;23;20170;-86
2022/04/29 05:18:26;;;;;;;13.33;7.93;;;;;;;;;;6257061;23;20167;-86
2022/04/29 05:21:46;;;;;;;12.97;8.07;;;;;;;;;;6257246;23;20165;-87
2022/04/29 05:24:51;;;;;;;12.77;7.17;;;;;;;;;;6255503;23;21001;-87
2022/04/29 05:28:26;;;;;;;14.20;7.73;;;;;;;;;;6236769;23;20543;-87
2022/04/29 05:31:50;;;;;;;16.73;7.13;;;;;;;;;;6260758;23;20162;-88
2022/04/29 05:35:14;;;;;;;11.93;7.63;;;;;;;;;;6258174;22;20170;-87
2022/04/29 05:42:17;;;;;;;12.30;7.30;;;;;;;;;;6256883;23;20166;-88
2022/04/29 05:45:22;;;;;;;17.07;7.80;;;;;;;;;;6256418;23;20209;-85
2022/04/29 05:48:27;;;;;;;12.00;7.23;;;;;;;;;;6253358;23;20195;-87
2022/04/29 05:51:32;;;;;;;12.07;7.53;;;;;;;;;;6253568;23;20167;-86
2022/04/29 05:54:39;;;;;;;12.00;6.87;;;;;;;;;;6255595;22;20162;-87
2022/04/29 05:57:44;;;;;;;16.97;7.20;;;;;;;;;;6254720;23;20166;-87
2022/04/29 06:00:49;;;;;;;10.80;6.60;;;;;;;;;;6254846;23;20170;-87
2022/04/29 06:03:55;;;;;;;10.40;6.17;;;;;;;;;;6254565;22;20174;-88
2022/04/29 06:07:01;;;;;;;13.80;5.93;;;;;;;;;;6252397;23;20175;-87
2022/04/29 06:10:09;;;;;;;12.33;6.23;;;;;;;;;;6236399;23;20301;-88
2022/04/29 06:13:17;;;;;;;9.68;6.32;;;;;;;;;;6234743;23;20178;-89
2022/04/29 06:16:48;;;;;;;10.48;6.47;;;;;;;;;;6254712;23;20482;-88
2022/04/29 06:20:15;;;;;;;14.93;7.10;;;;;;;;;;6253528;22;20202;-89
2022/04/29 06:23:41;;;;;;;9.85;6.25;;;;;;;;;;6252472;23;20789;-88
2022/04/29 06:26:48;;;;;;;11.55;6.38;;;;;;;;;;6236649;23;20614;-89
2022/04/29 06:29:56;;;;;;;9.38;5.72;;;;;;;;;;6236452;23;20522;-88
2022/04/29 06:33:02;;;;;;;11.10;6.38;;;;;;;;;;6237443;23;20681;-88
2022/04/29 06:36:15;;;;;;;11.20;6.00;;;;;;;;;;6238059;23;20210;-88
2022/04/29 06:39:24;;;;;;;17.42;6.47;;;;;;;;;;6237229;23;20167;-88
2022/04/29 06:42:50;;;;;;;8.40;5.47;;;;;;;;;;6256016;22;20170;-87
2022/04/29 06:46:17;;;;;;;9.65;5.82;;;;;;;;;;6254162;23;20212;-87
2022/04/29 06:49:41;;;;;;;11.63;6.00;;;;;;;;;;6257893;22;20226;-89
2022/04/29 06:53:24;;;;;;;11.13;5.97;;;;;;;;;;6161265;23;20173;-88
2022/04/29 06:56:30;;;;;;;8.65;5.30;;;;;;;;;;6163137;23;20188;-87
2022/04/29 06:59:38;;;;;;;8.98;5.60;;;;;;;;;;6255124;22;20174;-89
2022/04/29 07:02:44;;;;;;;9.48;5.18;;;;;;;;;;6234973;23;20170;-87
2022/04/29 07:05:50;;;;;;;9.23;5.90;;;;;;;;;;6234928;23;20170;-87
2022/04/29 07:08:56;;;;;;;8.82;5.53;;;;;;;;;;6247768;23;20205;-88
2022/04/29 07:12:20;;;;;;;12.52;5.72;;;;;;;;;;6253088;23;20623;-87
2022/04/29 07:15:43;;;;;;;11.77;5.60;;;;;;;;;;6254222;23;20227;-88
2022/04/29 07:19:05;;;;;;;8.00;5.03;;;;;;;;;;6255144;23;20170;-88
2022/04/29 07:22:10;;;;;;;8.73;5.10;;;;;;;;;;6255244;23;20290;-86
2022/04/29 07:25:23;;;;;;;11.30;4.88;;;;;;;;;;6253319;23;20166;-87
2022/04/29 07:28:28;;;;;;;10.50;5.70;;;;;;;;;;6254452;22;20409;-88
2022/04/29 07:31:36;;;;;;;12.30;5.88;;;;;;;;;;6254857;23;20170;-89
2022/04/29 07:42:40;;;;;;;14.27;6.30;;;;;;;;;;6174256;23;20227;-87
2022/04/29 07:45:46;;;;;;;11.23;5.68;;;;;;;;;;6175694;23;20223;-89
2022/04/29 07:49:27;;;;;;;10.25;5.68;;;;;;;;;;6167053;22;20865;-89
2022/04/29 07:52:33;;;;;;;8.40;5.43;;;;;;;;;;6255122;23;20190;-89
2022/04/29 07:55:39;;;;;;;12.35;5.72;;;;;;;;;;6252772;23;20194;-88
2022/04/29 07:58:44;;;;;;;8.68;4.82;;;;;;;;;;6254049;23;20211;-88
2022/04/29 08:01:49;;;;;;;8.85;4.88;;;;;;;;;;6256968;23;20506;-88
2022/04/29 08:04:56;;;;;;;7.55;4.55;;;;;;;;;;6256329;23;20167;-88
2022/04/29 08:08:02;;;;;;;12.85;4.78;;;;;;;;;;6258309;23;20339;-87
2022/04/29 08:11:07;;;;;;;15.35;4.82;;;;;;;;;;6258499;23;20561;-87
2022/04/29 08:14:21;;;;;;;8.07;5.35;;;;;;;;;;6254761;23;20186;-88
2022/04/29 08:17:46;;;;;;;7.15;4.78;;;;;;;;;;6254664;23;20171;-88
2022/04/29 08:20:56;;;;;;;19.92;5.35;;;;;;;;;;6255609;22;20170;-87
2022/04/29 08:24:02;;;;;;;9.68;4.47;;;;;;;;;;6259467;23;20171;-90
2022/04/29 08:27:10;;;;;;;10.27;4.78;;;;;;;;;;6266112;23;20178;-90
2022/04/29 08:30:16;;;;;;;12.50;4.32;;;;;;;;;;6263580;22;20181;-88
2022/04/29 08:33:26;;;;;;;8.07;4.78;;;;;;;;;;6268232;23;20151;-89
2022/04/29 08:36:44;;;;;;;8.15;5.00;;;;;;;;;;6265611;23;20225;-91
2022/04/29 08:39:50;;;;;;;9.65;5.60;;;;;;;;;;6265672;22;20190;-90
2022/04/29 08:42:57;;;;;;;8.50;5.07;;;;;;;;;;6258871;23;20183;-90
2022/04/29 08:46:02;;;;;;;6.47;4.57;;;;;;;;;;6258019;23;20169;-88
2022/04/29 08:49:16;;;;;;;15.40;9.60;;;;;;;;;;6264715;23;20252;-89
2022/04/29 08:52:22;;;;;;;8.80;4.57;;;;;;;;;;6256238;23;20168;-89
2022/04/29 08:58:51;;;;;;;8.70;4.50;;;;;;;;;;6259598;23;20202;-89
2022/04/29 09:01:59;;;;;;;7.43;4.80;;;;;;;;;;6259200;23;20163;-90
2022/04/29 09:05:08;;;;;;;8.93;5.13;;;;;;;;;;6258221;22;20291;-89
2022/04/29 09:08:16;;;;;;;6.25;4.63;;;;;;;;;;6260595;22;20201;-88
2022/04/29 09:11:26;;;;;;;11.48;4.78;;;;;;;;;;6243207;23;20166;-88
2022/04/29 09:14:31;;;;;;;7.60;5.05;;;;;;;;;;6240145;22;20171;-87
2022/04/29 09:17:44;;;;;;;8.30;4.50;;;;;;;;;;6239148;23;20174;-89
2022/04/29 09:20:53;;;;;;;7.00;4.63;;;;;;;;;;6241671;23;20182;-90
2022/04/29 09:24:03;;;;;;;6.20;4.43;;;;;;;;;;6239603;23;20209;-91
2022/04/29 09:27:28;;;;;;;6.55;4.60;;;;;;;;;;6259566;22;20165;-89
2022/04/29 09:30:39;;;;;;;8.13;4.13;;;;;;;;;;6242143;23;20217;-91
2022/04/29 09:34:19;;;;;;;10.55;4.40;;;;;;;;;;6259218;22;20167;-90
2022/04/29 09:37:28;;;;;;;8.60;4.55;;;;;;;;;;6240433;23;20171;-88
2022/04/29 09:40:43;;;;;;;8.88;4.50;;;;;;;;;;6240928;22;20179;-89
2022/04/29 09:43:50;;;;;;;7.57;4.43;;;;;;;;;;6242618;22;20167;-90
2022/04/29 09:46:55;;;;;;;6.60;4.03;;;;;;;;;;6242711;23;20170;-89
2022/04/29 09:50:01;;;;;;;8.10;4.45;;;;;;;;;;6243249;23;20254;-88
2022/04/29 09:53:17;;;;;;;8.20;4.30;;;;;;;;;;6243251;23;20216;-90
2022/04/29 09:56:25;;;;;;;9.57;4.50;;;;;;;;;;6243175;23;20154;-89
2022/04/29 09:59:33;;;;;;;8.05;4.82;;;;;;;;;;6247063;22;20194;-90
2022/04/29 10:02:39;;;;;;;6.97;4.32;;;;;;;;;;6244905;22;20480;-89
2022/04/29 10:05:44;;;;;;;9.73;4.65;;;;;;;;;;6244530;23;20223;-90
2022/04/29 10:08:51;;;;;;;11.32;4.75;;;;;;;;;;6248601;23;20189;-88
2022/04/29 10:12:13;;;;;;;9.55;4.57;;;;;;;;;;6261528;22;20708;-90
2022/04/29 10:15:26;;;;;;;9.10;4.68;;;;;;;;;;6263414;22;20174;-89
2022/04/29 10:22:37;;;;;;;9.27;5.60;;;;;;;;;;6259405;23;20179;-89
2022/04/29 10:25:43;;;;;;;5.93;4.30;;;;;;;;;;6256542;22;20170;-90
2022/04/29 10:28:48;;;;;;;6.95;4.30;;;;;;;;;;6256888;23;20170;-90
2022/04/29 10:32:07;;;;;;;10.93;5.00;;;;;;;;;;6257344;22;20236;-90
2022/04/29 10:35:27;;;;;;;10.13;5.55;;;;;;;;;;6255281;23;20166;-87
2022/04/29 10:38:34;;;;;;;5.65;3.85;;;;;;;;;;6256367;23;20158;-87
2022/04/29 10:41:58;;;;;;;8.00;4.50;;;;;;;;;;6258291;23;20217;-90
2022/04/29 10:45:04;;;;;;;8.93;4.05;;;;;;;;;;6256375;23;20217;-88
2022/04/29 10:48:28;;;;;;;6.68;4.38;;;;;;;;;;6258899;23;20170;-90
2022/04/29 10:51:55;;;;;;;13.00;4.78;;;;;;;;;;6258308;22;20221;-90
2022/04/29 10:55:24;;;;;;;6.95;4.28;;;;;;;;;;6260083;23;20407;-90
2022/04/29 10:58:50;;;;;;;9.80;4.28;;;;;;;;;;6260383;23;20170;-89
2022/04/29 11:02:13;;;;;;;12.63;4.70;;;;;;;;;;6260394;23;20547;-90
2022/04/29 11:05:37;;;;;;;7.30;4.10;;;;;;;;;;6260621;22;20170;-91
2022/04/29 11:08:45;;;;;;;5.72;3.90;;;;;;;;;;6258142;23;20189;-90
2022/04/29 11:11:51;;;;;;;7.40;4.15;;;;;;;;;;6257118;23;20672;-90
2022/04/29 11:15:16;;;;;;;7.40;3.75;;;;;;;;;;6258753;23;20167;-87
2022/04/29 11:18:37;;;;;;;6.78;4.40;;;;;;;;;;6256686;22;20606;-90
2022/04/29 11:25:07;;;;;;;7.93;4.15;;;;;;;;;;6257940;22;20217;-88
2022/04/29 11:28:19;;;;;;;15.55;4.63;;;;;;;;;;6257632;22;20166;-89
2022/04/29 11:31:48;;;;;;;8.80;3.88;;;;;;;;;;6261956;22;20174;-89
2022/04/29 11:34:54;;;;;;;8.82;4.00;;;;;;;;;;6261093;22;20207;-89
2022/04/29 11:38:00;;;;;;;9.10;3.90;;;;;;;;;;6260438;23;20166;-89
2022/04/29 11:41:07;;;;;;;10.65;3.70;;;;;;;;;;6258588;22;20196;-88
2022/04/29 11:44:12;;;;;;;6.28;3.85;;;;;;;;;;6259867;23;20170;-88
2022/04/29 11:47:24;;;;;;;7.70;3.95;;;;;;;;;;6258315;23;20165;-89
2022/04/29 11:50:33;;;;;;;7.75;3.88;;;;;;;;;;6262127;22;20197;-90
2022/04/29 11:53:53;;;;;;;7.10;4.40;;;;;;;;;;6263658;22;20166;-90
2022/04/29 11:57:00;;;;;;;7.97;3.60;;;;;;;;;;6258933;22;20165;-90
2022/04/29 12:00:06;;;;;;;9.57;4.13;;;;;;;;;;6259532;23;20193;-89
2022/04/29 12:03:19;;;;;;;6.60;3.60;;;;;;;;;;6258790;23;20174;-90
2022/04/29 12:06:24;;;;;;;10.38;4.45;;;;;;;;;;6259880;23;20185;-89
2022/04/29 12:09:32;;;;;;;6.80;4.20;;;;;;;;;;6258234;22;20235;-90
2022/04/29 12:12:40;;;;;;;8.75;3.88;;;;;;;;;;6260117;22;20166;-89
2022/04/29 12:15:46;;;;;;;10.38;4.03;;;;;;;;;;6260274;23;20242;-89
2022/04/29 12:18:52;;;;;;;8.93;3.70;;;;;;;;;;6259812;22;20186;-89
2022/04/29 12:22:00;;;;;;;7.22;3.88;;;;;;;;;;6260577;23;20170;-89
2022/04/29 12:25:21;;;;;;;6.95;4.47;;;;;;;;;;6264015;22;20169;-90
2022/04/29 12:28:29;;;;;;;7.90;3.97;;;;;;;;;;6264808;23;20221;-91
2022/04/29 12:35:07;;;;;;;9.15;4.50;;;;;;;;;;6262104;23;20207;-93
2022/04/29 12:38:18;;;;;;;7.63;3.83;;;;;;;;;;6264233;22;20149;-90
2022/04/29 12:41:24;;;;;;;7.25;4.50;;;;;;;;;;6262104;23;20220;-92
2022/04/29 12:48:11;;;;;;;6.88;4.03;;;;;;;;;;6262608;23;20170;-89
2022/04/29 12:51:25;;;;;;;8.15;3.70;;;;;;;;;;6263779;22;20189;-90
2022/04/29 12:54:30;;;;;;;6.95;3.63;;;;;;;;;;6262314;23;20193;-90
2022/04/29 12:57:35;;;;;;;5.53;3.60;;;;;;;;;;6264610;22;20166;-92
2022/04/29 13:00:42;;;;;;;10.20;3.92;;;;;;;;;;6260134;23;20190;-90
2022/04/29 13:03:52;;;;;;;7.93;3.58;;;;;;;;;;6260316;23;20238;-90
2022/04/29 13:07:07;;;;;;;7.50;3.90;;;;;;;;;;6258231;23;20175;-91
2022/04/29 13:10:18;;;;;;;7.80;3.80;;;;;;;;;;6257939;22;20650;-88
2022/04/29 13:13:24;;;;;;;8.00;3.90;;;;;;;;;;6259105;23;20162;-90
2022/04/29 13:16:33;;;;;;;6.15;4.32;;;;;;;;;;6258231;23;20182;-90
2022/04/29 13:19:42;;;;;;;6.00;4.05;;;;;;;;;;6258914;23;20233;-89
2022/04/29 13:22:50;;;;;;;8.90;4.13;;;;;;;;;;6259669;23;20297;-89
2022/04/29 13:25:56;;;;;;;14.70;6.57;;;;;;;;;;6258696;22;20158;-90
2022/04/29 13:29:03;;;;;;;13.90;6.50;;;;;;;;;;6256776;22;20213;-89
2022/04/29 13:32:10;;;;;;;14.48;6.32;;;;;;;;;;6263598;23;20169;-89
2022/04/29 13:35:16;;;;;;;12.90;7.00;;;;;;;;;;6260432;23;20178;-89
2022/04/29 13:38:22;;;;;;;16.88;7.15;;;;;;;;;;6261600;22;20171;-91
2022/04/29 13:41:27;;;;;;;13.98;5.57;;;;;;;;;;6261357;23;20214;-89
2022/04/29 13:44:32;;;;;;;9.93;4.65;;;;;;;;;;6262103;23;20155;-91
2022/04/29 13:47:39;;;;;;;8.20;5.05;;;;;;;;;;6256733;22;20263;-91
2022/04/29 13:50:45;;;;;;;7.60;4.43;;;;;;;;;;6258456;23;20170;-90
2022/04/29 13:53:50;;;;;;;7.07;4.40;;;;;;;;;;6259834;22;20223;-92
2022/04/29 13:56:58;;;;;;;10.50;5.38;;;;;;;;;;6259248;23;20182;-90
2022/04/29 14:00:04;;;;;;;9.07;4.03;;;;;;;;;;6256158;23;20194;-89
2022/04/29 14:03:19;;;;;;;6.05;3.50;;;;;;;;;;6258198;22;20157;-90
2022/04/29 14:06:24;;;;;;;6.20;3.80;;;;;;;;;;6256009;23;20179;-91
2022/04/29 14:09:29;;;;;;;6.82;3.80;;;;;;;;;;6259671;22;20189;-91
2022/04/29 14:12:35;;;;;;;9.63;4.20;;;;;;;;;;6259368;23;20210;-91
2022/04/29 14:15:41;;;;;;;10.70;4.05;;;;;;;;;;6257570;22;20163;-90
2022/04/29 14:19:27;;;;;;;6.45;3.63;;;;;;;;;;6258313;23;20193;-90
2022/04/29 14:22:34;;;;;;;7.63;4.13;;;;;;;;;;6259672;23;20175;-87
2022/04/29 14:25:39;;;;;;;4.90;3.60;;;;;;;;;;6260171;22;20603;-90
2022/04/29 14:28:43;;;;;;;8.65;4.15;;;;;;;;;;6258539;23;20235;-89
2022/04/29 14:31:50;;;;;;;7.45;3.97;;;;;;;;;;6256752;23;20171;-88
2022/04/29 14:34:55;;;;;;;7.30;3.83;;;;;;;;;;6257720;23;20170;-90
2022/04/29 14:38:02;;;;;;;8.07;3.78;;;;;;;;;;6259323;23;20158;-87
2022/04/29 14:41:08;;;;;;;8.75;4.15;;;;;;;;;;6261595;23;20182;-88
2022/04/29 14:44:14;;;;;;;9.10;4.03;;;;;;;;;;6260826;22;20186;-89
2022/04/29 14:47:20;;;;;;;6.78;4.25;;;;;;;;;;6258648;22;20582;-88
2022/04/29 14:50:25;;;;;;;6.97;4.43;;;;;;;;;;6258153;22;20166;-89
2022/04/29 14:53:33;;;;;;;6.53;4.10;;;;;;;;;;6259705;23;20214;-90
2022/04/29 14:56:41;;;;;;;7.32;3.90;;;;;;;;;;6259694;23;20239;-91
2022/04/29 14:59:47;;;;;;;8.27;3.90;;;;;;;;;;6261114;23;20174;-90
2022/04/29 15:02:52;;;;;;;13.52;3.85;;;;;;;;;;6259757;22;20174;-88
2022/04/29 15:05:57;;;;;;;8.40;4.25;;;;;;;;;;6258837;22;20232;-90
2022/04/29 15:15:50;;;;;;;7.78;4.90;;;;;;;;;;6259210;23;20162;-89
2022/04/29 15:18:56;;;;;;;9.63;5.18;;;;;;;;;;6259850;22;20181;-89
2022/04/29 15:22:01;;;;;;;11.38;5.15;;;;;;;;;;6259012;23;20209;-89
2022/04/29 15:25:09;;;;;;;11.95;4.25;;;;;;;;;;6257920;23;20219;-90
2022/04/29 15:28:14;;;;;;;10.13;4.35;;;;;;;;;;6258752;23;20242;-87
2022/04/29 15:34:43;;;;;;;6.85;4.63;;;;;;;;;;6261172;23;20306;-90
2022/04/29 15:37:48;;;;;;;11.85;5.30;;;;;;;;;;6260471;23;20210;-90
2022/04/29 15:40:56;;;;;;;10.07;5.28;;;;;;;;;;6259653;22;20244;-89
2022/04/29 15:44:02;;;;;;;11.15;5.07;;;;;;;;;;6259196;23;20191;-89
2022/04/29 15:47:07;;;;;;;11.68;5.30;;;;;;;;;;6259912;23;20169;-89
2022/04/29 15:50:16;;;;;;;10.85;5.20;;;;;;;;;;6259861;22;20209;-90
2022/04/29 15:53:23;;;;;;;10.35;5.60;;;;;;;;;;6261647;22;20159;-89
2022/04/29 15:56:31;;;;;;;12.85;5.45;;;;;;;;;;6260310;22;20166;-90
2022/04/29 15:59:37;;;;;;;10.57;5.25;;;;;;;;;;6261230;23;20167;-90
2022/04/29 16:02:42;;;;;;;10.25;5.90;;;;;;;;;;6259693;22;20281;-90
2022/04/29 16:05:47;;;;;;;9.45;5.85;;;;;;;;;;6260306;23;20182;-90
2022/04/29 16:08:52;;;;;;;11.68;6.55;;;;;;;;;;6260615;22;20265;-89
2022/04/29 16:12:03;;;;;;;10.50;5.90;;;;;;;;;;6259718;23;20170;-89
2022/04/29 16:15:09;;;;;;;8.57;5.70;;;;;;;;;;6258824;23;20169;-90
2022/04/29 16:21:38;;;;;;;12.32;5.97;;;;;;;;;;6257844;23;20186;-90
2022/04/29 16:28:08;;;;;;;10.40;5.28;;;;;;;;;;6260017;23;20186;-90
2022/04/29 16:31:14;;;;;;;10.32;5.57;;;;;;;;;;6261152;23;20170;-89
2022/04/29 16:34:20;;;;;;;8.90;5.32;;;;;;;;;;6260793;22;20169;-92
2022/04/29 16:37:25;;;;;;;12.95;8.98;;;;;;;;;;6258845;23;20170;-90
2022/04/29 16:40:32;;;;;;;10.88;6.03;;;;;;;;;;6261034;23;20202;-89
2022/04/29 16:43:40;;;;;;;9.65;5.45;;;;;;;;;;6261266;23;20250;-88
2022/04/29 16:46:44;;;;;;;8.25;5.70;;;;;;;;;;6257929;23;20209;-88
2022/04/29 16:49:50;;;;;;;10.10;6.05;;;;;;;;;;6259479;22;20161;-89
2022/04/29 16:52:55;;;;;;;10.32;5.93;;;;;;;;;;6257516;23;20177;-89
2022/04/29 16:56:00;;;;;;;12.02;5.93;;;;;;;;;;6259252;23;20158;-90
2022/04/29 16:59:05;;;;;;;9.10;5.93;;;;;;;;;;6261296;22;20170;-90
2022/04/29 17:02:11;;;;;;;11.90;5.40;;;;;;;;;;6259882;22;20182;-89
2022/04/29 17:05:16;;;;;;;12.23;5.20;;;;;;;;;;6261334;23;20170;-91
2022/04/29 17:08:21;;;;;;;15.98;4.72;;;;;;;;;;6259563;23;20242;-91
2022/04/29 17:11:26;;;;;;;18.60;5.88;;;;;;;;;;6240626;23;20149;-91
2022/04/29 17:14:32;;;;;;;11.05;5.55;;;;;;;;;;6241328;23;20205;-89
2022/04/29 17:17:37;;;;;;;8.38;4.82;;;;;;;;;;6239584;23;20214;-89
2022/04/29 17:20:43;;;;;;;9.55;4.53;;;;;;;;;;6241496;23;20198;-90
2022/04/29 17:24:04;;;;;;;13.50;4.88;;;;;;;;;;6240801;22;20174;-89
2022/04/29 17:27:09;;;;;;;7.63;4.55;;;;;;;;;;6240242;22;20190;-91
2022/04/29 17:30:16;;;;;;;9.13;4.65;;;;;;;;;;6239363;22;20179;-91
2022/04/29 17:33:21;;;;;;;9.50;4.13;;;;;;;;;;6239954;23;20167;-90
2022/04/29 17:36:27;;;;;;;9.60;4.47;;;;;;;;;;6240732;23;20163;-89
2022/04/29 17:42:57;;;;;;;11.60;5.65;;;;;;;;;;6211202;23;20184;-89
2022/04/29 17:46:04;;;;;;;14.25;5.93;;;;;;;;;;6210123;23;20175;-91
2022/04/29 17:49:09;;;;;;;10.73;6.50;;;;;;;;;;6210335;23;20166;-90
2022/04/29 17:52:15;;;;;;;15.18;6.47;;;;;;;;;;6210789;23;20200;-88
2022/04/29 17:55:22;;;;;;;11.93;5.88;;;;;;;;;;6209568;22;20170;-89
2022/04/29 17:58:27;;;;;;;13.82;7.28;;;;;;;;;;6211693;23;20179;-90
2022/04/29 18:01:34;;;;;;;17.23;8.50;;;;;;;;;;6210689;23;20522;-91
2022/04/29 18:04:39;;;;;;;10.13;5.60;;;;;;;;;;6210315;23;20171;-88
2022/04/29 18:07:46;;;;;;;8.45;5.43;;;;;;;;;;6212033;23;20170;-90
2022/04/29 18:10:52;;;;;;;17.00;6.80;;;;;;;;;;6208825;23;20159;-88
2022/04/29 18:13:58;;;;;;;6.75;4.35;;;;;;;;;;6210225;23;20183;-89
2022/04/29 18:17:05;;;;;;;13.40;4.20;;;;;;;;;;6210142;23;20657;-89
2022/04/29 18:20:13;;;;;;;8.25;4.47;;;;;;;;;;6210630;23;20166;-88
2022/04/29 18:23:18;;;;;;;11.77;5.13;;;;;;;;;;6210233;23;20688;-89
2022/04/29 18:26:24;;;;;;;12.68;5.63;;;;;;;;;;6208324;23;20179;-86
2022/04/29 18:29:29;;;;;;;12.20;7.22;;;;;;;;;;6210457;23;20158;-90
2022/04/29 18:32:37;;;;;;;10.13;5.93;;;;;;;;;;6210277;22;20190;-90
2022/04/29 18:35:42;;;;;;;14.38;6.25;;;;;;;;;;6210557;22;20646;-89
2022/04/29 18:38:47;;;;;;;15.68;6.22;;;;;;;;;;6209838;23;20167;-89
2022/04/29 18:41:54;;;;;;;10.00;5.28;;;;;;;;;;6211582;23;20190;-89
2022/04/29 18:44:59;;;;;;;10.60;5.28;;;;;;;;;;6210405;23;20172;-87
2022/04/29 18:48:06;;;;;;;17.50;7.57;;;;;;;;;;6211578;22;20206;-91
2022/04/29 18:51:11;;;;;;;15.52;8.50;;;;;;;;;;6212229;22;20222;-90
2022/04/29 18:54:16;;;;;;;14.55;7.38;;;;;;;;;;6212687;23;20171;-89
2022/04/29 18:57:22;;;;;;;14.35;6.85;;;;;;;;;;6210551;23;20180;-88
2022/04/29 19:00:27;;;;;;;12.63;6.95;;;;;;;;;;6211600;23;20175;-89
2022/04/29 19:03:34;;;;;;;17.92;6.55;;;;;;;;;;6213232;23;20179;-87
2022/04/29 19:06:39;;;;;;;14.52;5.97;;;;;;;;;;6212238;22;20163;-90
2022/04/29 19:09:47;;;;;;;13.57;6.70;;;;;;;;;;6227657;22;20186;-89
2022/04/29 19:12:55;;;;;;;15.02;7.20;;;;;;;;;;6229797;22;20175;-89
2022/04/29 19:16:00;;;;;;;12.63;7.22;;;;;;;;;;6228380;22;20163;-87
2022/04/29 19:19:08;;;;;;;13.30;7.13;;;;;;;;;;6226912;22;20199;-88
2022/04/29 19:22:14;;;;;;;10.50;5.80;;;;;;;;;;6228670;22;20251;-89
2022/04/29 19:25:20;;;;;;;14.50;6.55;;;;;;;;;;6229174;22;20171;-90
2022/04/29 19:28:25;;;;;;;12.27;7.22;;;;;;;;;;6230329;22;20223;-89
2022/04/29 19:31:30;;;;;;;18.20;7.13;;;;;;;;;;6231044;23;20734;-89
2022/04/29 19:34:38;;;;;;;15.70;7.72;;;;;;;;;;6229416;22;20167;-90
2022/04/29 19:37:43;;;;;;;13.88;6.95;;;;;;;;;;6228871;22;20174;-87